Time;durP1;ratioP1;P1;durP2;ratioP2;P2;SDS_P1;SDS_P2;PMS_P1;PMS_P2;Temp;Humidity;BMP_temperature;BMP_pressure;BME280_temperature;BME280_humidity;BME280_pressure;Samples;Min_cycle;Max_cycle;Signal;HPM_P1;HPM_P2
2022/09/07 00:00:40;;;;;;;46.65;8.65;;;;;;;;;;4971514;28;20595;-51
2022/09/07 00:03:07;;;;;;;56.67;9.20;;;;;;;;;;4969063;28;20043;-48
2022/09/07 00:05:34;;;;;;;59.67;10.35;;;;;;;;;;4972353;28;20027;-54
2022/09/07 00:08:01;;;;;;;47.80;9.00;;;;;;;;;;4971012;28;20034;-51
2022/09/07 00:10:28;;;;;;;47.65;10.70;;;;;;;;;;4957248;28;20031;-49
2022/09/07 00:12:55;;;;;;;60.22;12.02;;;;;;;;;;4976175;28;20019;-50
2022/09/07 00:15:22;;;;;;;46.30;10.38;;;;;;;;;;4976658;28;20015;-52
2022/09/07 00:17:49;;;;;;;48.63;10.98;;;;;;;;;;4975138;28;20481;-48
2022/09/07 00:20:16;;;;;;;55.67;11.82;;;;;;;;;;4975117;28;20046;-50
2022/09/07 00:22:44;;;;;;;51.08;11.63;;;;;;;;;;4976286;28;20033;-51
2022/09/07 00:25:12;;;;;;;53.90;10.73;;;;;;;;;;4964905;28;20381;-53
2022/09/07 00:27:41;;;;;;;62.80;11.52;;;;;;;;;;4976222;28;20516;-53
2022/09/07 00:30:08;;;;;;;56.33;10.77;;;;;;;;;;4976320;28;20396;-48
2022/09/07 00:32:35;;;;;;;60.22;11.10;;;;;;;;;;4970054;28;20042;-53
2022/09/07 00:35:02;;;;;;;53.25;11.57;;;;;;;;;;4964429;28;20027;-52
2022/09/07 00:37:29;;;;;;;43.97;10.13;;;;;;;;;;4964376;28;20022;-54
2022/09/07 00:39:56;;;;;;;54.20;12.13;;;;;;;;;;4976299;28;20033;-48
2022/09/07 00:42:23;;;;;;;58.05;12.65;;;;;;;;;;4974724;28;20022;-50
2022/09/07 00:44:59;;;;;;;57.95;13.23;;;;;;;;;;4974189;28;20027;-53
2022/09/07 00:47:26;;;;;;;62.63;12.20;;;;;;;;;;4974298;28;20568;-55
2022/09/07 00:49:57;;;;;;;64.95;11.90;;;;;;;;;;4973687;28;20105;-51
2022/09/07 00:52:25;;;;;;;60.58;12.38;;;;;;;;;;4973755;28;20074;-57
2022/09/07 00:54:54;;;;;;;53.17;10.27;;;;;;;;;;4975514;28;20564;-51
2022/09/07 00:57:21;;;;;;;60.70;11.57;;;;;;;;;;4975671;28;20054;-51
2022/09/07 00:59:50;;;;;;;63.42;12.07;;;;;;;;;;4968524;28;20031;-50
2022/09/07 01:02:17;;;;;;;75.40;10.75;;;;;;;;;;4974293;28;20023;-51
2022/09/07 01:04:46;;;;;;;70.55;11.80;;;;;;;;;;4968762;28;20050;-57
2022/09/07 01:07:14;;;;;;;69.05;11.43;;;;;;;;;;4972294;28;20677;-60
2022/09/07 01:09:41;;;;;;;62.33;10.63;;;;;;;;;;4971502;28;20104;-54
2022/09/07 01:12:08;;;;;;;56.85;10.13;;;;;;;;;;4973983;28;20030;-62
2022/09/07 01:14:40;;;;;;;55.38;9.75;;;;;;;;;;4975081;28;20511;-61
2022/09/07 01:17:06;;;;;;;74.50;10.07;;;;;;;;;;4975294;28;20106;-54
2022/09/07 01:19:53;;;;;;;57.65;10.75;;;;;;;;;;4974103;28;20034;-60
2022/09/07 01:22:49;;;;;;;47.78;9.63;;;;;;;;;;4972997;28;20038;-60
2022/09/07 01:25:35;;;;;;;62.60;10.27;;;;;;;;;;4938222;28;20117;-59
2022/09/07 01:28:22;;;;;;;46.25;8.88;;;;;;;;;;4974094;28;20033;-57
2022/09/07 01:30:55;;;;;;;45.45;8.45;;;;;;;;;;4974112;28;20037;-56
2022/09/07 01:33:33;;;;;;;50.78;10.35;;;;;;;;;;4973497;28;20510;-55
2022/09/07 01:36:00;;;;;;;45.50;7.72;;;;;;;;;;4974758;28;20135;-57
2022/09/07 01:38:31;;;;;;;57.83;8.57;;;;;;;;;;4974879;28;20086;-56
2022/09/07 01:41:11;;;;;;;52.47;8.07;;;;;;;;;;4975153;28;20027;-53
2022/09/07 01:43:45;;;;;;;59.97;9.63;;;;;;;;;;4975156;28;20034;-53
2022/09/07 01:46:17;;;;;;;61.50;8.60;;;;;;;;;;4974841;28;20019;-56
2022/09/07 01:48:44;;;;;;;;;;;;;;;;;;4975289;28;20030;-54
2022/09/07 01:51:11;;;;;;;44.92;8.02;;;;;;;;;;4974604;28;20328;-56
2022/09/07 01:53:44;;;;;;;52.78;8.38;;;;;;;;;;4973446;28;20034;-54
2022/09/07 01:56:17;;;;;;;61.25;8.82;;;;;;;;;;4974710;28;20029;-57
2022/09/07 01:58:47;;;;;;;57.40;8.27;;;;;;;;;;4974731;28;20027;-54
2022/09/07 02:01:25;;;;;;;59.38;8.25;;;;;;;;;;4957065;28;20034;-55
2022/09/07 02:03:56;;;;;;;58.10;8.30;;;;;;;;;;4971998;28;20042;-54
2022/09/07 02:06:30;;;;;;;49.53;7.50;;;;;;;;;;4971947;28;20101;-56
2022/09/07 02:09:02;;;;;;;60.85;8.18;;;;;;;;;;4974297;28;20631;-53
2022/09/07 02:11:28;;;;;;;;;;;;;;;;;;4959900;28;20512;-57
2022/09/07 02:14:06;;;;;;;50.58;8.13;;;;;;;;;;4974607;28;19945;-55
2022/09/07 02:16:35;;;;;;;51.50;7.57;;;;;;;;;;4956897;28;20023;-54
2022/09/07 02:19:05;;;;;;;52.78;6.97;;;;;;;;;;4974183;28;20031;-55
2022/09/07 02:21:38;;;;;;;44.22;7.07;;;;;;;;;;4973341;28;20042;-56
2022/09/07 02:24:08;;;;;;;45.63;6.53;;;;;;;;;;4974263;28;20023;-56
2022/09/07 02:26:36;;;;;;;52.30;6.85;;;;;;;;;;4960602;28;20031;-56
2022/09/07 02:29:03;;;;;;;56.22;7.30;;;;;;;;;;4972160;28;20042;-56
2022/09/07 02:31:30;;;;;;;66.75;7.93;;;;;;;;;;4971804;28;20097;-52
2022/09/07 02:34:00;;;;;;;53.38;7.38;;;;;;;;;;4973308;28;20039;-55
2022/09/07 02:36:28;;;;;;;46.53;6.38;;;;;;;;;;4972606;28;20046;-54
2022/09/07 02:38:55;;;;;;;47.92;6.85;;;;;;;;;;4970964;28;20113;-57
2022/09/07 02:41:48;;;;;;;53.92;6.68;;;;;;;;;;4971926;28;20547;-54
2022/09/07 02:44:33;;;;;;;52.20;7.03;;;;;;;;;;4968675;28;20434;-54
2022/09/07 02:47:15;;;;;;;54.45;6.75;;;;;;;;;;4972647;28;20034;-53
2022/09/07 02:49:52;;;;;;;47.13;6.70;;;;;;;;;;4971565;28;20113;-56
2022/09/07 02:52:37;;;;;;;49.65;6.53;;;;;;;;;;4972994;28;20058;-57
2022/09/07 02:55:04;;;;;;;43.05;6.50;;;;;;;;;;4973553;28;20018;-53
2022/09/07 02:57:34;;;;;;;48.97;6.28;;;;;;;;;;4971678;28;20031;-58
2022/09/07 03:00:16;;;;;;;46.83;5.65;;;;;;;;;;4973066;28;20508;-57
2022/09/07 03:03:00;;;;;;;50.42;6.03;;;;;;;;;;4972832;28;20069;-57
2022/09/07 03:05:37;;;;;;;40.03;5.97;;;;;;;;;;4972728;28;20026;-56
2022/09/07 03:08:10;;;;;;;58.75;5.93;;;;;;;;;;4972760;28;20015;-53
2022/09/07 03:10:40;;;;;;;35.33;5.10;;;;;;;;;;4972942;28;20034;-58
2022/09/07 03:13:07;;;;;;;43.35;6.00;;;;;;;;;;4972641;28;20030;-54
2022/09/07 03:15:34;;;;;;;43.35;5.00;;;;;;;;;;4970719;28;20026;-53
2022/09/07 03:18:01;;;;;;;40.20;4.97;;;;;;;;;;4971935;28;20032;-59
2022/09/07 03:20:28;;;;;;;37.30;4.88;;;;;;;;;;4971614;28;20022;-51
2022/09/07 03:22:55;;;;;;;40.90;5.93;;;;;;;;;;4971877;28;20385;-57
2022/09/07 03:25:22;;;;;;;43.63;4.53;;;;;;;;;;4971282;28;20757;-57
2022/09/07 03:27:49;;;;;;;31.48;4.35;;;;;;;;;;4972483;28;20031;-56
2022/09/07 03:30:16;;;;;;;35.40;4.72;;;;;;;;;;4971541;28;20034;-55
2022/09/07 03:32:43;;;;;;;34.58;5.85;;;;;;;;;;4973062;28;20031;-54
2022/09/07 03:35:11;;;;;;;25.27;4.22;;;;;;;;;;4973485;28;20443;-49
2022/09/07 03:37:38;;;;;;;31.88;4.75;;;;;;;;;;4973450;28;20023;-51
2022/09/07 03:40:06;;;;;;;34.10;5.18;;;;;;;;;;4973545;28;20027;-55
2022/09/07 03:42:33;;;;;;;30.42;4.38;;;;;;;;;;4973426;28;20544;-53
2022/09/07 03:45:00;;;;;;;25.77;3.83;;;;;;;;;;4976306;28;20105;-55
2022/09/07 03:47:27;;;;;;;21.25;3.63;;;;;;;;;;4975979;28;20489;-55
2022/09/07 03:49:54;;;;;;;39.65;4.65;;;;;;;;;;4977231;28;20026;-52
2022/09/07 03:52:27;;;;;;;21.88;3.78;;;;;;;;;;4977260;28;20023;-54
2022/09/07 03:54:54;;;;;;;17.02;3.88;;;;;;;;;;4977108;28;20018;-58
2022/09/07 03:57:21;;;;;;;28.83;4.45;;;;;;;;;;4977200;28;20027;-58
2022/09/07 03:59:51;;;;;;;18.52;3.83;;;;;;;;;;4977062;28;20031;-56
2022/09/07 04:02:18;;;;;;;28.88;4.03;;;;;;;;;;4976180;28;20023;-56
2022/09/07 04:04:45;;;;;;;25.63;3.90;;;;;;;;;;4957473;29;20134;-55
2022/09/07 04:07:12;;;;;;;27.30;3.80;;;;;;;;;;4957612;29;20090;-57
2022/09/07 04:09:39;;;;;;;19.25;3.95;;;;;;;;;;4957767;29;20039;-58
2022/09/07 04:12:06;;;;;;;35.38;4.53;;;;;;;;;;4957639;29;20437;-54
2022/09/07 04:14:33;;;;;;;19.67;3.63;;;;;;;;;;4957672;29;20068;-59
2022/09/07 04:17:00;;;;;;;27.48;4.15;;;;;;;;;;4957350;29;20589;-58
2022/09/07 04:19:29;;;;;;;28.67;4.20;;;;;;;;;;4970001;28;20027;-58
2022/09/07 04:21:56;;;;;;;18.25;3.92;;;;;;;;;;4976878;28;20073;-55
2022/09/07 04:24:23;;;;;;;19.23;3.88;;;;;;;;;;4976751;28;20519;-60
2022/09/07 04:26:50;;;;;;;17.35;3.65;;;;;;;;;;4976536;28;20031;-57
2022/09/07 04:29:16;;;;;;;12.70;2.78;;;;;;;;;;4975093;28;20030;-51
2022/09/07 04:31:43;;;;;;;17.30;3.58;;;;;;;;;;4976462;28;20059;-51
2022/09/07 04:34:10;;;;;;;14.70;3.45;;;;;;;;;;4975110;28;20027;-52
2022/09/07 04:36:37;;;;;;;23.92;4.13;;;;;;;;;;4976606;28;20019;-52
2022/09/07 04:39:05;;;;;;;22.90;3.97;;;;;;;;;;4976397;28;20397;-52
2022/09/07 04:41:33;;;;;;;27.50;3.45;;;;;;;;;;4980003;28;20101;-57
2022/09/07 04:44:01;;;;;;;14.82;2.75;;;;;;;;;;4995768;28;20029;-55
2022/09/07 04:46:29;;;;;;;17.92;3.17;;;;;;;;;;4995602;28;20027;-57
2022/09/07 04:48:58;;;;;;;17.17;3.83;;;;;;;;;;4995684;28;20101;-55
2022/09/07 04:51:25;;;;;;;13.02;3.10;;;;;;;;;;4995653;28;20449;-57
2022/09/07 04:53:54;;;;;;;17.40;2.95;;;;;;;;;;4977380;28;20444;-54
2022/09/07 04:56:22;;;;;;;13.60;3.22;;;;;;;;;;4975415;28;20408;-55
2022/09/07 04:58:48;;;;;;;13.82;2.95;;;;;;;;;;4975891;28;20035;-58
2022/09/07 05:01:17;;;;;;;13.35;2.60;;;;;;;;;;4976194;28;20045;-58
2022/09/07 05:03:45;;;;;;;15.43;3.00;;;;;;;;;;4975758;28;20047;-57
2022/09/07 05:06:14;;;;;;;14.32;2.95;;;;;;;;;;4976052;28;20102;-54
2022/09/07 05:08:42;;;;;;;18.52;3.05;;;;;;;;;;4974274;28;20042;-53
2022/09/07 05:11:09;;;;;;;16.10;2.83;;;;;;;;;;4975928;28;20046;-50
2022/09/07 05:13:36;;;;;;;13.20;3.08;;;;;;;;;;4975876;28;20034;-53
2022/09/07 05:16:09;;;;;;;15.48;2.92;;;;;;;;;;4976023;28;20026;-51
2022/09/07 05:18:36;;;;;;;17.90;2.67;;;;;;;;;;4975590;28;20094;-52
2022/09/07 05:21:14;;;;;;;13.32;2.95;;;;;;;;;;4975690;28;20034;-52
2022/09/07 05:23:41;;;;;;;11.07;3.03;;;;;;;;;;4975634;28;20050;-52
2022/09/07 05:26:08;;;;;;;18.05;3.30;;;;;;;;;;4974202;28;20035;-56
2022/09/07 05:28:36;;;;;;;11.23;3.05;;;;;;;;;;4975175;28;20034;-56
2022/09/07 05:31:04;;;;;;;12.60;2.85;;;;;;;;;;4975487;28;20035;-54
2022/09/07 05:33:31;;;;;;;16.52;2.70;;;;;;;;;;4975613;28;20027;-58
2022/09/07 05:35:58;;;;;;;9.20;2.42;;;;;;;;;;4975447;28;20023;-54
2022/09/07 05:38:25;;;;;;;9.07;2.50;;;;;;;;;;4975209;28;20023;-57
2022/09/07 05:40:52;;;;;;;11.68;2.53;;;;;;;;;;4975326;28;20029;-54
2022/09/07 05:43:20;;;;;;;14.07;3.22;;;;;;;;;;4966053;28;20492;-54
2022/09/07 05:45:47;;;;;;;14.45;2.90;;;;;;;;;;4955951;29;20074;-57
2022/09/07 05:48:14;;;;;;;11.52;2.28;;;;;;;;;;4955597;29;20106;-56
2022/09/07 05:50:50;;;;;;;15.07;2.55;;;;;;;;;;4955922;29;20396;-55
2022/09/07 05:53:17;;;;;;;10.38;2.50;;;;;;;;;;4955788;29;20095;-56
2022/09/07 05:55:44;;;;;;;10.52;2.50;;;;;;;;;;4955567;29;20078;-53
2022/09/07 05:58:12;;;;;;;9.32;2.38;;;;;;;;;;4960065;28;20035;-54
2022/09/07 06:00:38;;;;;;;11.05;2.30;;;;;;;;;;4974428;28;20098;-57
2022/09/07 06:03:05;;;;;;;7.07;2.45;;;;;;;;;;4972360;28;20053;-51
2022/09/07 06:05:32;;;;;;;7.47;2.20;;;;;;;;;;4974859;28;20023;-50
2022/09/07 06:07:59;;;;;;;11.65;2.45;;;;;;;;;;4973622;28;20026;-54
2022/09/07 06:10:26;;;;;;;10.30;2.70;;;;;;;;;;4974728;28;20089;-54
2022/09/07 06:12:53;;;;;;;12.23;2.58;;;;;;;;;;4974652;28;20031;-51
2022/09/07 06:15:20;;;;;;;6.85;2.40;;;;;;;;;;4974792;28;20552;-53
2022/09/07 06:17:47;;;;;;;6.57;2.10;;;;;;;;;;4974386;28;20038;-52
2022/09/07 06:20:14;;;;;;;9.32;2.03;;;;;;;;;;4973149;28;20026;-52
2022/09/07 06:22:41;;;;;;;8.65;2.78;;;;;;;;;;4974292;28;20076;-55
2022/09/07 06:25:09;;;;;;;10.18;2.20;;;;;;;;;;4974505;28;20038;-58
2022/09/07 06:27:35;;;;;;;9.35;2.80;;;;;;;;;;4974366;28;20049;-55
2022/09/07 06:30:02;;;;;;;7.93;2.25;;;;;;;;;;4974259;28;20080;-58
2022/09/07 06:32:29;;;;;;;13.35;2.47;;;;;;;;;;4974393;28;20509;-51
2022/09/07 06:34:56;;;;;;;9.10;2.30;;;;;;;;;;4974126;28;20022;-49
2022/09/07 06:37:23;;;;;;;5.40;2.05;;;;;;;;;;4972681;28;20059;-57
2022/09/07 06:39:50;;;;;;;12.60;2.40;;;;;;;;;;4974297;28;20019;-53
2022/09/07 06:42:17;;;;;;;7.53;2.40;;;;;;;;;;4974176;28;20023;-54
2022/09/07 06:44:44;;;;;;;7.07;2.13;;;;;;;;;;4974253;28;20031;-55
2022/09/07 06:47:11;;;;;;;6.07;2.08;;;;;;;;;;4974103;28;20023;-51
2022/09/07 06:49:38;;;;;;;9.27;1.83;;;;;;;;;;4974098;28;20485;-54
2022/09/07 06:52:05;;;;;;;7.05;1.90;;;;;;;;;;4972690;28;20121;-55
2022/09/07 06:54:32;;;;;;;4.93;1.90;;;;;;;;;;4974170;28;20117;-56
2022/09/07 06:56:59;;;;;;;5.03;2.28;;;;;;;;;;4973779;28;20054;-57
2022/09/07 06:59:26;;;;;;;7.30;2.30;;;;;;;;;;4974096;28;20038;-57
2022/09/07 07:01:53;;;;;;;8.15;2.22;;;;;;;;;;4973946;28;20041;-54
2022/09/07 07:04:20;;;;;;;9.05;3.03;;;;;;;;;;4972424;28;20107;-52
2022/09/07 07:06:47;;;;;;;10.70;2.88;;;;;;;;;;4973693;28;20026;-54
2022/09/07 07:09:14;;;;;;;6.70;2.63;;;;;;;;;;4972474;28;20078;-58
2022/09/07 07:11:43;;;;;;;8.55;2.95;;;;;;;;;;4973869;28;20037;-55
2022/09/07 07:14:17;;;;;;;7.28;2.78;;;;;;;;;;4973718;28;20469;-56
2022/09/07 07:16:44;;;;;;;9.25;3.70;;;;;;;;;;4973887;28;20027;-52
2022/09/07 07:19:11;;;;;;;8.60;3.35;;;;;;;;;;4973233;28;20070;-59
2022/09/07 07:21:38;;;;;;;8.82;3.70;;;;;;;;;;4973703;28;20505;-55
2022/09/07 07:24:05;;;;;;;11.45;4.07;;;;;;;;;;4971123;28;20520;-58
2022/09/07 07:26:33;;;;;;;10.50;3.92;;;;;;;;;;4973495;28;20100;-55
2022/09/07 07:29:00;;;;;;;8.55;3.55;;;;;;;;;;4973741;28;20034;-56
2022/09/07 07:31:27;;;;;;;8.02;3.60;;;;;;;;;;4973721;28;20403;-54
2022/09/07 07:33:54;;;;;;;10.32;3.88;;;;;;;;;;4973796;28;20022;-58
2022/09/07 07:36:25;;;;;;;9.07;3.75;;;;;;;;;;4973719;28;20146;-56
2022/09/07 07:38:53;;;;;;;8.50;3.28;;;;;;;;;;4973560;28;20046;-54
2022/09/07 07:41:21;;;;;;;7.93;3.78;;;;;;;;;;4972064;28;20035;-51
2022/09/07 07:43:52;;;;;;;10.30;4.10;;;;;;;;;;4973561;28;20411;-50
2022/09/07 07:46:19;;;;;;;11.50;4.00;;;;;;;;;;4973580;28;20031;-54
2022/09/07 07:48:49;;;;;;;11.02;3.67;;;;;;;;;;4973491;28;20039;-51
2022/09/07 07:51:16;;;;;;;12.02;3.60;;;;;;;;;;4973220;28;20041;-51
2022/09/07 07:53:43;;;;;;;10.00;3.88;;;;;;;;;;4973469;28;20019;-52
2022/09/07 07:56:11;;;;;;;11.13;4.40;;;;;;;;;;4972021;28;20063;-54
2022/09/07 07:58:39;;;;;;;11.27;4.57;;;;;;;;;;4953885;29;20031;-54
2022/09/07 08:01:06;;;;;;;12.35;4.60;;;;;;;;;;4954142;29;20098;-57
2022/09/07 08:03:38;;;;;;;8.82;4.38;;;;;;;;;;4968695;28;20078;-54
2022/09/07 08:06:10;;;;;;;9.57;4.50;;;;;;;;;;4954121;29;20042;-58
2022/09/07 08:08:37;;;;;;;17.20;7.47;;;;;;;;;;4953968;29;20286;-53
2022/09/07 08:11:08;;;;;;;21.85;8.18;;;;;;;;;;4953897;29;20027;-55
2022/09/07 08:13:36;;;;;;;40.00;16.17;;;;;;;;;;4966919;28;20038;-53
2022/09/07 08:16:04;;;;;;;27.98;14.15;;;;;;;;;;4973278;28;20027;-54
2022/09/07 08:18:32;;;;;;;42.40;19.48;;;;;;;;;;4973114;28;20034;-57
2022/09/07 08:21:03;;;;;;;52.10;23.55;;;;;;;;;;4973025;28;20047;-54
2022/09/07 08:23:31;;;;;;;42.78;20.45;;;;;;;;;;4973251;28;20034;-56
2022/09/07 08:25:58;;;;;;;48.13;21.33;;;;;;;;;;4973202;28;20026;-55
2022/09/07 08:28:26;;;;;;;41.60;21.40;;;;;;;;;;4971811;28;20034;-56
2022/09/07 08:30:54;;;;;;;45.65;21.27;;;;;;;;;;4956711;28;20121;-53
2022/09/07 08:33:21;;;;;;;43.40;21.00;;;;;;;;;;4976704;28;20028;-52
2022/09/07 08:36:02;;;;;;;42.42;20.75;;;;;;;;;;4976606;28;20032;-50
2022/09/07 08:38:30;;;;;;;51.30;23.90;;;;;;;;;;4976462;28;20469;-52
2022/09/07 08:40:57;;;;;;;59.15;26.13;;;;;;;;;;4976343;28;20034;-52
2022/09/07 08:43:27;;;;;;;48.28;22.98;;;;;;;;;;4976554;28;20023;-54
2022/09/07 08:45:56;;;;;;;49.53;24.00;;;;;;;;;;4969023;28;20422;-53
2022/09/07 08:48:32;;;;;;;47.78;23.83;;;;;;;;;;4956847;29;20067;-52
2022/09/07 08:51:02;;;;;;;47.90;24.65;;;;;;;;;;4956998;29;20039;-53
2022/09/07 08:53:29;;;;;;;50.45;24.38;;;;;;;;;;4957093;29;20020;-49
2022/09/07 08:55:58;;;;;;;54.65;26.23;;;;;;;;;;4956759;29;20027;-56
2022/09/07 08:58:31;;;;;;;55.33;27.13;;;;;;;;;;4956880;29;20031;-53
2022/09/07 09:00:59;;;;;;;51.25;24.50;;;;;;;;;;4956797;29;20031;-53
2022/09/07 09:03:27;;;;;;;48.30;24.02;;;;;;;;;;4971154;28;20050;-53
2022/09/07 09:06:17;;;;;;;52.85;24.90;;;;;;;;;;4976166;28;20027;-50
2022/09/07 09:08:56;;;;;;;49.17;23.98;;;;;;;;;;4975624;28;20557;-50
2022/09/07 09:11:43;;;;;;;53.50;24.75;;;;;;;;;;4958804;28;20401;-53
2022/09/07 09:14:39;;;;;;;51.85;24.88;;;;;;;;;;4975818;28;20413;-53
2022/09/07 09:17:17;;;;;;;48.90;23.15;;;;;;;;;;4923566;28;20040;-51
2022/09/07 09:19:54;;;;;;;47.35;23.52;;;;;;;;;;4983350;28;20119;-58
2022/09/07 09:22:22;;;;;;;44.28;22.67;;;;;;;;;;4995139;28;20034;-56
2022/09/07 09:24:53;;;;;;;48.47;22.33;;;;;;;;;;4995229;28;20026;-55
2022/09/07 09:27:20;;;;;;;45.40;21.38;;;;;;;;;;4977650;28;20030;-54
2022/09/07 09:29:47;;;;;;;50.25;22.73;;;;;;;;;;4984410;28;20492;-54
2022/09/07 09:32:34;;;;;;;51.60;22.77;;;;;;;;;;4985562;28;20434;-54
2022/09/07 09:35:03;;;;;;;47.40;23.10;;;;;;;;;;4973413;28;20031;-57
2022/09/07 09:37:33;;;;;;;56.22;24.65;;;;;;;;;;4975269;28;20405;-53
2022/09/07 09:40:00;;;;;;;57.25;27.98;;;;;;;;;;4975252;28;20050;-58
2022/09/07 09:42:30;;;;;;;63.22;31.42;;;;;;;;;;4975106;28;20026;-56
2022/09/07 09:45:03;;;;;;;69.32;33.92;;;;;;;;;;4975437;28;20523;-58
2022/09/07 09:47:37;;;;;;;74.38;34.03;;;;;;;;;;4975114;28;20038;-57
2022/09/07 09:50:24;;;;;;;77.55;34.90;;;;;;;;;;4973852;28;20042;-51
2022/09/07 09:52:52;;;;;;;69.95;33.60;;;;;;;;;;4975095;28;20122;-52
2022/09/07 09:55:24;;;;;;;77.65;37.90;;;;;;;;;;4975135;28;20023;-51
2022/09/07 09:57:51;;;;;;;;;;;;;;;;;;4975462;28;20022;-51
2022/09/07 10:00:20;;;;;;;98.50;42.80;;;;;;;;;;4974827;28;20328;-53
2022/09/07 10:02:59;;;;;;;89.70;43.08;;;;;;;;;;4974848;28;20029;-54
2022/09/07 10:05:33;;;;;;;89.45;43.47;;;;;;;;;;4975226;28;20413;-55
2022/09/07 10:08:00;;;;;;;99.57;43.80;;;;;;;;;;4972782;28;20042;-53
2022/09/07 10:10:28;;;;;;;94.43;43.80;;;;;;;;;;4976426;28;20034;-59
2022/09/07 10:12:56;;;;;;;89.72;43.30;;;;;;;;;;4970034;28;20041;-52
2022/09/07 10:15:27;;;;;;;94.43;43.92;;;;;;;;;;4971968;28;20033;-54
2022/09/07 10:17:54;;;;;;;92.00;40.83;;;;;;;;;;4967019;28;20489;-58
2022/09/07 10:20:33;;;;;;;92.15;43.55;;;;;;;;;;4964433;28;20019;-50
2022/09/07 10:23:00;;;;;;;95.40;42.60;;;;;;;;;;4964223;28;20039;-53
2022/09/07 10:25:31;;;;;;;91.72;42.30;;;;;;;;;;4964023;28;20097;-55
2022/09/07 10:28:24;;;;;;;108.78;47.30;;;;;;;;;;4952740;28;20090;-58
2022/09/07 10:31:09;;;;;;;100.85;45.08;;;;;;;;;;4961306;28;20074;-53
2022/09/07 10:33:39;;;;;;;114.68;47.97;;;;;;;;;;4963987;28;20031;-52
2022/09/07 10:36:18;;;;;;;117.95;49.03;;;;;;;;;;4963845;28;20019;-57
2022/09/07 10:38:47;;;;;;;103.68;47.83;;;;;;;;;;4963240;28;20426;-55
2022/09/07 10:41:16;;;;;;;98.28;46.28;;;;;;;;;;4962373;28;20370;-54
2022/09/07 10:43:45;;;;;;;107.95;48.83;;;;;;;;;;4965142;28;20023;-57
2022/09/07 10:46:18;;;;;;;103.15;48.08;;;;;;;;;;4964312;28;20405;-54
2022/09/07 10:48:51;;;;;;;102.07;47.35;;;;;;;;;;4964987;28;20723;-55
2022/09/07 10:51:22;;;;;;;111.70;49.88;;;;;;;;;;4973850;28;20038;-59
2022/09/07 10:54:07;;;;;;;115.00;52.22;;;;;;;;;;4973147;28;20037;-58
2022/09/07 10:56:44;;;;;;;112.82;50.95;;;;;;;;;;4972533;28;20034;-52
2022/09/07 10:59:20;;;;;;;111.05;51.10;;;;;;;;;;4971441;28;20026;-57
2022/09/07 11:01:58;;;;;;;104.45;51.75;;;;;;;;;;4972327;28;20027;-56
2022/09/07 11:04:39;;;;;;;113.13;53.60;;;;;;;;;;4971087;28;20051;-53
2022/09/07 11:07:18;;;;;;;115.63;52.20;;;;;;;;;;4955005;28;20090;-53
2022/09/07 11:09:47;;;;;;;114.45;53.00;;;;;;;;;;4971192;28;20046;-57
2022/09/07 11:12:25;;;;;;;123.13;53.55;;;;;;;;;;4971059;28;20035;-56
2022/09/07 11:15:05;;;;;;;124.40;53.75;;;;;;;;;;4973002;28;20031;-57
2022/09/07 11:17:43;;;;;;;124.70;57.85;;;;;;;;;;4972844;28;20034;-52
2022/09/07 11:20:21;;;;;;;132.60;59.05;;;;;;;;;;4973082;28;20054;-59
2022/09/07 11:23:04;;;;;;;137.07;59.42;;;;;;;;;;4973781;28;20027;-55
2022/09/07 11:25:30;;;;;;;;;;;;;;;;;;4969720;28;20031;-55
2022/09/07 11:28:02;;;;;;;133.98;57.78;;;;;;;;;;4969382;28;19913;-54
2022/09/07 11:30:31;;;;;;;132.23;58.08;;;;;;;;;;4972734;28;20070;-53
2022/09/07 11:33:02;;;;;;;133.10;58.83;;;;;;;;;;4973748;28;20035;-49
2022/09/07 11:35:34;;;;;;;123.80;59.35;;;;;;;;;;4973311;28;20094;-55
2022/09/07 11:38:05;;;;;;;144.82;62.35;;;;;;;;;;4969051;28;20468;-51
2022/09/07 11:40:38;;;;;;;140.68;61.20;;;;;;;;;;4973624;28;20049;-48
2022/09/07 11:43:43;;;;;;;134.52;62.13;;;;;;;;;;4972190;28;20042;-49
2022/09/07 11:46:15;;;;;;;140.40;63.10;;;;;;;;;;4914026;29;20032;-50
2022/09/07 11:48:44;;;;;;;142.90;64.40;;;;;;;;;;4913996;29;20048;-51
2022/09/07 11:51:37;;;;;;;154.90;65.63;;;;;;;;;;4946033;28;20565;-51
2022/09/07 11:54:18;;;;;;;140.48;64.95;;;;;;;;;;4973708;28;20474;-51
2022/09/07 11:56:48;;;;;;;148.38;65.55;;;;;;;;;;4973435;28;20548;-50
2022/09/07 11:59:32;;;;;;;137.20;62.30;;;;;;;;;;4971767;28;20027;-55
2022/09/07 12:02:05;;;;;;;131.63;61.20;;;;;;;;;;4966538;28;20022;-53
2022/09/07 12:04:42;;;;;;;138.10;61.80;;;;;;;;;;4964397;28;20054;-51
2022/09/07 12:07:27;;;;;;;137.45;62.40;;;;;;;;;;4967445;28;20028;-52
2022/09/07 12:10:16;;;;;;;134.90;60.53;;;;;;;;;;4975567;28;20046;-51
2022/09/07 12:12:52;;;;;;;135.43;60.30;;;;;;;;;;4987113;28;20374;-48
2022/09/07 12:15:23;;;;;;;139.60;59.58;;;;;;;;;;4985536;28;20038;-48
2022/09/07 12:17:53;;;;;;;135.30;60.00;;;;;;;;;;4985736;28;20035;-54
2022/09/07 12:20:21;;;;;;;130.07;55.70;;;;;;;;;;4984947;28;20031;-51
2022/09/07 12:22:58;;;;;;;127.55;52.63;;;;;;;;;;4986507;28;20054;-54
2022/09/07 12:25:27;;;;;;;126.22;53.88;;;;;;;;;;4982716;28;20034;-50
2022/09/07 12:27:55;;;;;;;113.88;50.63;;;;;;;;;;4985069;28;20026;-54
2022/09/07 12:30:22;;;;;;;110.05;48.28;;;;;;;;;;4983779;28;20034;-52
2022/09/07 12:32:50;;;;;;;114.72;48.05;;;;;;;;;;4986189;28;20416;-52
2022/09/07 12:35:32;;;;;;;125.85;49.00;;;;;;;;;;4983447;28;20038;-53
2022/09/07 12:38:04;;;;;;;114.60;48.95;;;;;;;;;;4984982;28;20050;-55
2022/09/07 12:40:32;;;;;;;115.18;50.15;;;;;;;;;;4979476;28;20396;-50
2022/09/07 12:43:14;;;;;;;113.95;49.58;;;;;;;;;;4996063;28;20070;-49
2022/09/07 12:45:41;;;;;;;110.07;51.30;;;;;;;;;;4990522;28;20113;-54
2022/09/07 12:48:07;;;;;;;111.75;50.40;;;;;;;;;;4983685;28;20491;-52
2022/09/07 12:50:38;;;;;;;111.10;46.72;;;;;;;;;;4985825;28;20121;-54
2022/09/07 12:53:16;;;;;;;113.25;46.65;;;;;;;;;;4985029;28;20030;-56
2022/09/07 12:55:58;;;;;;;99.13;44.10;;;;;;;;;;4974652;28;20027;-52
2022/09/07 12:58:37;;;;;;;98.75;43.42;;;;;;;;;;4975984;28;20027;-51
2022/09/07 13:01:07;;;;;;;105.80;44.75;;;;;;;;;;4975961;28;20077;-48
2022/09/07 13:03:40;;;;;;;107.50;41.75;;;;;;;;;;4967374;28;20155;-59
2022/09/07 13:06:16;;;;;;;95.53;40.40;;;;;;;;;;4984514;28;20035;-52
2022/09/07 13:09:01;;;;;;;79.72;35.60;;;;;;;;;;4983630;28;20023;-54
2022/09/07 13:11:34;;;;;;;82.60;32.35;;;;;;;;;;4957350;28;20059;-49
2022/09/07 13:14:06;;;;;;;80.05;32.35;;;;;;;;;;4956352;29;20031;-49
2022/09/07 13:16:37;;;;;;;79.53;30.13;;;;;;;;;;4955686;28;20023;-53
2022/09/07 13:19:07;;;;;;;75.67;28.07;;;;;;;;;;4956240;29;20122;-54
2022/09/07 13:21:36;;;;;;;70.70;24.67;;;;;;;;;;4982144;28;20161;-59
2022/09/07 13:24:15;;;;;;;72.15;24.90;;;;;;;;;;4982977;28;20026;-53
2022/09/07 13:26:56;;;;;;;59.13;22.92;;;;;;;;;;4972883;28;20035;-54
2022/09/07 13:29:26;;;;;;;57.40;22.05;;;;;;;;;;4974311;28;20118;-52
2022/09/07 13:32:05;;;;;;;60.95;21.13;;;;;;;;;;4975276;28;20026;-56
2022/09/07 13:34:36;;;;;;;60.33;20.58;;;;;;;;;;4975112;28;20019;-55
2022/09/07 13:37:07;;;;;;;58.28;19.35;;;;;;;;;;4974984;28;20081;-58
2022/09/07 13:39:41;;;;;;;58.85;19.38;;;;;;;;;;4975081;28;20524;-56
2022/09/07 13:42:15;;;;;;;57.80;17.30;;;;;;;;;;4971508;28;20035;-57
2022/09/07 13:44:42;;;;;;;47.42;16.38;;;;;;;;;;4974656;28;20031;-60
2022/09/07 13:47:13;;;;;;;49.13;16.38;;;;;;;;;;4974902;28;20367;-53
2022/09/07 13:49:59;;;;;;;36.72;13.98;;;;;;;;;;4964541;28;20129;-58
2022/09/07 13:52:51;;;;;;;41.65;15.35;;;;;;;;;;4971832;28;20034;-55
2022/09/07 13:55:18;;;;;;;;;;;;;;;;;;4936274;28;20054;-54
2022/09/07 13:57:48;;;;;;;49.42;10.27;;;;;;;;;;4974635;28;19921;-60
2022/09/07 14:00:15;;;;;;;26.60;10.18;;;;;;;;;;4972372;28;20129;-59
2022/09/07 14:02:43;;;;;;;35.58;10.30;;;;;;;;;;4972346;28;20023;-55
2022/09/07 14:05:11;;;;;;;32.80;8.70;;;;;;;;;;4974129;28;20047;-52
2022/09/07 14:07:44;;;;;;;21.98;7.55;;;;;;;;;;4974240;28;20130;-56
2022/09/07 14:10:19;;;;;;;23.60;6.60;;;;;;;;;;4973381;28;20404;-48
2022/09/07 14:12:54;;;;;;;28.17;7.13;;;;;;;;;;4982291;28;20140;-48
2022/09/07 14:15:28;;;;;;;24.48;6.15;;;;;;;;;;4982889;28;20033;-56
2022/09/07 14:18:05;;;;;;;23.77;6.28;;;;;;;;;;4955129;29;20031;-52
2022/09/07 14:20:37;;;;;;;20.40;6.60;;;;;;;;;;4955263;29;20027;-55
2022/09/07 14:23:10;;;;;;;25.75;6.80;;;;;;;;;;4955240;29;20023;-51
2022/09/07 14:25:37;;;;;;;23.73;5.55;;;;;;;;;;4955048;29;20031;-54
2022/09/07 14:28:04;;;;;;;21.60;6.07;;;;;;;;;;4954301;28;20046;-49
2022/09/07 14:30:32;;;;;;;24.67;6.55;;;;;;;;;;4969207;28;20042;-53
2022/09/07 14:33:04;;;;;;;34.22;7.20;;;;;;;;;;4974178;28;20061;-50
2022/09/07 14:35:36;;;;;;;103.97;12.52;;;;;;;;;;4973324;28;20045;-51
2022/09/07 14:38:17;;;;;;;35.30;6.97;;;;;;;;;;4974027;28;20034;-56
2022/09/07 14:40:45;;;;;;;35.78;8.18;;;;;;;;;;4956490;28;20066;-52
2022/09/07 14:43:30;;;;;;;32.88;7.38;;;;;;;;;;4973959;28;20397;-57
2022/09/07 14:46:15;;;;;;;32.55;8.32;;;;;;;;;;4973963;28;20085;-53